createdAt,value
2022-11-04T00:02:08.695Z,1.73
2022-11-04T00:04:35.582Z,1.97
2022-11-04T00:07:02.394Z,5.43
2022-11-04T00:09:52.673Z,4.15
2022-11-04T00:12:17.449Z,5.63
2022-11-04T00:14:44.127Z,4.30
2022-11-04T00:17:25.960Z,3.60
2022-11-04T00:19:54.461Z,11.05
2022-11-04T00:22:21.154Z,6.45
2022-11-04T00:25:04.880Z,3.55
2022-11-04T00:27:31.605Z,2.42
2022-11-04T00:30:09.192Z,2.80
2022-11-04T00:32:44.848Z,7.28
2022-11-04T00:35:32.297Z,3.08
2022-11-04T00:37:58.966Z,1.75
2022-11-04T00:40:26.228Z,5.45
2022-11-04T00:43:06.161Z,4.37
2022-11-04T00:45:32.941Z,1.50
2022-11-04T00:51:04.286Z,5.85
2022-11-04T00:53:31.019Z,5.72
2022-11-04T00:55:59.741Z,3.07
2022-11-04T00:58:38.991Z,4.53
2022-11-04T01:01:10.341Z,3.65
2022-11-04T01:06:19.291Z,4.03
2022-11-04T01:09:04.703Z,1.87
2022-11-04T01:11:31.523Z,2.80
2022-11-04T01:13:58.970Z,1.90
2022-11-04T01:16:42.413Z,2.70
2022-11-04T01:21:52.491Z,3.07
2022-11-04T01:24:19.840Z,1.50
2022-11-04T01:27:04.880Z,1.70
2022-11-04T01:29:31.562Z,2.08
2022-11-04T01:31:58.200Z,1.10
2022-11-04T01:34:49.651Z,2.20
2022-11-04T01:37:16.205Z,4.65
2022-11-04T01:39:46.977Z,1.85
2022-11-04T01:42:21.479Z,1.08
2022-11-04T01:44:50.877Z,2.97
2022-11-04T01:47:37.620Z,4.83
2022-11-04T01:50:29.211Z,2.97
2022-11-04T01:52:58.880Z,2.63
2022-11-04T01:55:49.862Z,2.35
2022-11-04T01:58:34.681Z,1.13
2022-11-04T02:06:27.651Z,1.98
2022-11-04T02:11:52.572Z,4.93
2022-11-04T02:14:19.188Z,7.63
2022-11-04T02:16:48.286Z,1.92
2022-11-04T02:20:02.308Z,2.67
2022-11-04T02:23:06.877Z,1.38
2022-11-04T02:26:10.722Z,3.42
2022-11-04T02:29:26.116Z,1.47
2022-11-04T02:32:24.007Z,1.60
2022-11-04T02:41:33.294Z,1.88
2022-11-04T02:44:13.016Z,3.33
2022-11-04T02:46:48.557Z,4.05
2022-11-04T02:49:33.569Z,2.92
2022-11-04T02:52:09.663Z,3.85
2022-11-04T02:54:51.666Z,3.35
2022-11-04T02:57:23.336Z,1.90
2022-11-04T02:59:58.734Z,3.22
2022-11-04T03:02:35.073Z,4.10
2022-11-04T03:05:03.938Z,1.85
2022-11-04T03:07:36.034Z,2.97
2022-11-04T03:10:07.547Z,2.63
2022-11-04T03:12:40.944Z,4.85
2022-11-04T03:15:15.361Z,2.20
2022-11-04T03:17:50.705Z,3.47
2022-11-04T03:20:22.401Z,2.53
2022-11-04T03:22:49.215Z,5.53
2022-11-04T03:25:16.305Z,6.13
2022-11-04T03:27:54.527Z,3.70
2022-11-04T03:30:23.355Z,5.47
2022-11-04T03:32:58.779Z,13.43
2022-11-04T03:35:26.783Z,3.10
2022-11-04T03:37:53.775Z,3.58
2022-11-04T03:40:22.131Z,3.83
2022-11-04T03:42:57.957Z,6.10
2022-11-04T03:45:29.207Z,4.88
2022-11-04T03:47:56.896Z,6.40
2022-11-04T03:50:32.129Z,2.47
2022-11-04T03:53:00.206Z,2.85
2022-11-04T03:55:51.979Z,2.83
2022-11-04T03:58:46.390Z,5.50
2022-11-04T04:01:28.378Z,3.93
2022-11-04T04:04:10.217Z,7.20
2022-11-04T04:06:40.052Z,4.63
2022-11-04T04:09:29.720Z,4.78
2022-11-04T04:12:04.313Z,4.90
2022-11-04T04:14:42.964Z,7.00
2022-11-04T04:20:34.648Z,4.45
2022-11-04T04:23:18.460Z,8.10
2022-11-04T04:25:45.155Z,8.45
2022-11-04T04:28:15.533Z,7.87
2022-11-04T04:30:43.450Z,6.90
2022-11-04T04:33:13.811Z,9.50
2022-11-04T04:35:52.961Z,6.20
2022-11-04T04:38:28.050Z,5.95
2022-11-04T04:41:02.962Z,6.50
2022-11-04T04:43:29.742Z,8.13
2022-11-04T04:45:57.234Z,7.90
2022-11-04T04:48:23.973Z,6.85
2022-11-04T04:50:53.602Z,6.97
2022-11-04T04:53:20.315Z,6.47
2022-11-04T04:55:46.844Z,8.63
2022-11-04T04:58:13.528Z,6.97
2022-11-04T05:00:40.141Z,10.23
2022-11-04T05:03:07.207Z,6.65
2022-11-04T05:05:33.988Z,6.53
2022-11-04T05:08:08.398Z,6.85
2022-11-04T05:10:35.401Z,13.10
2022-11-04T05:13:02.274Z,6.88
2022-11-04T05:15:30.444Z,6.78
2022-11-04T05:17:59.198Z,8.57
2022-11-04T05:20:26.443Z,6.88
2022-11-04T05:22:59.052Z,9.45
2022-11-04T05:25:25.709Z,12.68
2022-11-04T05:27:52.320Z,11.90
2022-11-04T05:30:43.166Z,10.97
2022-11-04T05:33:10.378Z,15.80
2022-11-04T05:35:46.504Z,11.27
2022-11-04T05:38:13.448Z,10.05
2022-11-04T05:40:40.034Z,8.65
2022-11-04T05:43:07.224Z,8.77
2022-11-04T05:45:51.353Z,7.32
2022-11-04T05:48:17.987Z,7.45
2022-11-04T05:50:44.859Z,7.35
2022-11-04T05:55:54.332Z,11.63
2022-11-04T05:58:20.972Z,10.98
2022-11-04T06:01:14.094Z,8.38
2022-11-04T06:03:40.757Z,8.73
2022-11-04T06:06:17.453Z,11.23
2022-11-04T06:08:45.450Z,9.90
2022-11-04T06:11:12.734Z,9.65
2022-11-04T06:16:20.251Z,10.57
2022-11-04T06:18:46.925Z,15.77
2022-11-04T06:21:13.665Z,10.33
2022-11-04T06:23:50.316Z,13.65
2022-11-04T06:26:18.319Z,11.10
2022-11-04T06:28:45.358Z,11.20
2022-11-04T06:33:58.434Z,11.10
2022-11-04T06:36:25.036Z,11.20
2022-11-04T06:39:10.903Z,14.02
2022-11-04T06:41:37.510Z,12.02
2022-11-04T06:44:04.560Z,11.43
2022-11-04T06:46:42.389Z,11.70
2022-11-04T06:49:14.391Z,11.27
2022-11-04T06:51:41.446Z,13.90
2022-11-04T06:54:08.055Z,9.65
2022-11-04T06:56:34.680Z,10.13
2022-11-04T06:59:01.679Z,10.07
2022-11-04T07:01:33.027Z,9.85
2022-11-04T07:04:01.236Z,10.55
2022-11-04T07:06:29.025Z,16.55
2022-11-04T07:08:58.518Z,9.50
2022-11-04T07:11:25.983Z,11.17
2022-11-04T07:13:52.831Z,8.82
2022-11-04T07:16:19.433Z,8.75
2022-11-04T07:18:46.469Z,9.10
2022-11-04T07:21:13.111Z,8.80
2022-11-04T07:23:39.735Z,8.00
2022-11-04T07:26:08.353Z,8.73
2022-11-04T07:28:35.367Z,8.85
2022-11-04T07:31:03.848Z,9.95
2022-11-04T07:33:31.029Z,18.63
2022-11-04T07:35:58.551Z,12.40
2022-11-04T07:41:10.905Z,9.05
2022-11-04T07:43:37.494Z,8.27
2022-11-04T07:46:26.852Z,8.45
2022-11-04T07:48:56.467Z,9.43
2022-11-04T07:54:39.855Z,9.60
2022-11-04T07:57:06.471Z,8.02
2022-11-04T08:02:13.840Z,11.30
2022-11-04T08:04:40.821Z,9.93
2022-11-04T08:07:10.603Z,8.23
2022-11-04T08:09:40.370Z,7.60
2022-11-04T08:12:10.955Z,7.88
2022-11-04T08:14:37.536Z,7.60
2022-11-04T08:17:04.175Z,7.03
2022-11-04T08:22:19.460Z,9.35
2022-11-04T08:25:04.765Z,9.85
2022-11-04T08:28:09.918Z,6.63
2022-11-04T08:34:01.958Z,6.10
2022-11-04T08:36:52.030Z,9.43
2022-11-04T08:39:19.019Z,10.60
2022-11-04T08:41:54.009Z,7.83
2022-11-04T08:44:21.394Z,5.50
2022-11-04T08:46:48.420Z,6.07
2022-11-04T08:49:20.610Z,11.43
2022-11-04T08:51:51.038Z,6.70
2022-11-04T08:54:17.637Z,5.87
2022-11-04T08:56:45.074Z,5.93
2022-11-04T08:59:12.196Z,5.40
2022-11-04T09:01:54.427Z,9.65
2022-11-04T09:13:09.115Z,7.28
2022-11-04T09:15:38.720Z,4.97
2022-11-04T09:18:08.375Z,5.70
2022-11-04T09:23:54.509Z,5.45
2022-11-04T09:26:23.941Z,5.57
2022-11-04T09:28:55.952Z,8.07
2022-11-04T09:31:28.339Z,7.22
2022-11-04T09:33:56.570Z,7.17
2022-11-04T09:36:24.983Z,8.95
2022-11-04T09:38:53.227Z,7.68
2022-11-04T09:50:00.174Z,8.63
2022-11-04T09:52:44.747Z,7.60
2022-11-04T09:55:53.912Z,8.00
2022-11-04T09:58:22.615Z,11.73
2022-11-04T10:00:58.688Z,12.87
2022-11-04T10:03:37.226Z,7.43
2022-11-04T10:06:17.645Z,6.43
2022-11-04T10:09:18.099Z,7.80
2022-11-04T10:12:13.048Z,7.10
2022-11-04T10:15:02.220Z,8.73
2022-11-04T10:17:55.869Z,5.15
2022-11-04T10:20:31.586Z,9.68
2022-11-04T10:23:04.522Z,5.95
2022-11-04T10:25:59.117Z,7.20
2022-11-04T10:31:47.857Z,6.35
2022-11-04T10:34:38.033Z,6.53
2022-11-04T10:37:08.664Z,5.30
2022-11-04T10:39:40.039Z,7.97
2022-11-04T10:42:12.415Z,6.67
2022-11-04T10:44:39.588Z,6.90
2022-11-04T10:47:31.630Z,8.27
2022-11-04T10:50:31.296Z,7.95
2022-11-04T10:53:13.670Z,8.38
2022-11-04T10:56:00.198Z,6.17
2022-11-04T10:58:32.135Z,6.78
2022-11-04T11:01:00.060Z,7.80
2022-11-04T11:03:32.619Z,6.05
2022-11-04T11:06:14.968Z,8.18
2022-11-04T11:08:44.092Z,5.60
2022-11-04T11:11:11.247Z,7.25
2022-11-04T11:13:42.217Z,8.43
2022-11-04T11:16:20.550Z,7.45
2022-11-04T11:19:17.933Z,6.95
2022-11-04T11:21:45.990Z,9.13
2022-11-04T11:24:22.285Z,6.40
2022-11-04T11:26:52.540Z,7.43
2022-11-04T11:29:29.186Z,7.10
2022-11-04T11:31:57.575Z,7.45
2022-11-04T11:34:28.313Z,6.23
2022-11-04T11:36:57.428Z,5.47
2022-11-04T11:39:29.771Z,7.38
2022-11-04T11:42:03.976Z,5.20
2022-11-04T11:44:48.736Z,7.53
2022-11-04T11:47:34.115Z,5.40
2022-11-04T11:50:17.770Z,7.07
2022-11-04T11:52:49.196Z,4.57
2022-11-04T11:55:36.439Z,4.50
2022-11-04T12:01:36.189Z,3.47
2022-11-04T12:10:49.324Z,5.65
2022-11-04T12:13:37.267Z,6.28
2022-11-04T12:16:18.714Z,5.33
2022-11-04T12:19:09.274Z,8.43
2022-11-04T12:21:46.096Z,7.32
2022-11-04T12:24:36.648Z,6.50
2022-11-04T12:27:09.395Z,6.20
2022-11-04T12:30:12.374Z,3.60
2022-11-04T12:33:05.342Z,3.42
2022-11-04T12:36:05.723Z,3.40
2022-11-04T12:38:38.606Z,2.65
2022-11-04T12:41:52.837Z,1.85
2022-11-04T12:44:38.494Z,0.77
2022-11-04T12:47:29.214Z,2.38
2022-11-04T12:50:08.349Z,1.10
2022-11-04T12:52:40.908Z,2.22
2022-11-04T12:55:43.421Z,4.70
2022-11-04T12:58:22.571Z,2.13
2022-11-04T13:00:59.853Z,1.20
2022-11-04T13:03:37.370Z,1.05
2022-11-04T13:06:15.557Z,2.78
2022-11-04T13:09:12.877Z,2.13
2022-11-04T13:11:48.501Z,2.17
2022-11-04T13:14:24.389Z,1.10
2022-11-04T13:16:53.331Z,1.50
2022-11-04T13:19:35.071Z,1.85
2022-11-04T13:22:16.002Z,1.17
2022-11-04T13:25:09.144Z,2.93
2022-11-04T13:27:39.566Z,1.63
2022-11-04T13:30:24.350Z,2.28
2022-11-04T13:33:28.955Z,1.30
2022-11-04T13:36:19.363Z,1.67
2022-11-04T13:39:14.885Z,1.83
2022-11-04T13:41:41.437Z,2.25
2022-11-04T13:44:29.517Z,9.43
2022-11-04T13:46:59.769Z,1.27
2022-11-04T13:49:32.640Z,2.35
2022-11-04T13:52:22.587Z,2.37
2022-11-04T13:54:51.969Z,1.48
2022-11-04T13:57:18.476Z,1.50
2022-11-04T14:00:18.392Z,2.85
2022-11-04T14:02:56.503Z,2.15
2022-11-04T14:05:31.791Z,5.00
2022-11-04T14:08:01.386Z,1.40
2022-11-04T14:10:50.448Z,3.72
2022-11-04T14:13:29.505Z,1.98
2022-11-04T14:16:26.999Z,8.35
2022-11-04T14:18:55.638Z,1.43
2022-11-04T14:21:28.886Z,3.20
2022-11-04T14:23:57.942Z,4.45
2022-11-04T14:26:36.655Z,1.85
2022-11-04T14:29:09.374Z,11.13
2022-11-04T14:31:39.143Z,5.80
2022-11-04T14:34:07.131Z,4.95
2022-11-04T14:36:39.349Z,1.73
2022-11-04T14:39:12.022Z,5.25
2022-11-04T14:41:41.308Z,1.50
2022-11-04T14:44:17.746Z,1.93
2022-11-04T14:46:46.263Z,1.30
2022-11-04T14:52:28.977Z,1.20
2022-11-04T14:55:27.375Z,4.22
2022-11-04T14:57:56.495Z,1.00
2022-11-04T15:00:53.613Z,2.20
2022-11-04T15:04:09.095Z,0.93
2022-11-04T15:06:34.908Z,1.45
2022-11-04T15:09:25.853Z,1.40
2022-11-04T15:12:10.534Z,1.40
2022-11-04T15:14:40.065Z,1.00
2022-11-04T15:17:07.045Z,1.77
2022-11-04T15:22:32.271Z,2.40
2022-11-04T15:25:04.443Z,2.13
2022-11-04T15:27:31.083Z,1.67
2022-11-04T15:30:01.109Z,1.65
2022-11-04T15:32:28.885Z,2.88
2022-11-04T15:35:01.171Z,2.75
2022-11-04T15:37:31.384Z,2.87
2022-11-04T15:39:58.903Z,1.95
2022-11-04T15:42:30.462Z,7.05
2022-11-04T15:44:57.227Z,5.20
2022-11-04T15:47:26.269Z,1.13
2022-11-04T15:49:54.454Z,2.33
2022-11-04T15:52:26.675Z,2.92
2022-11-04T15:54:55.531Z,2.65
2022-11-04T15:57:26.303Z,3.05
2022-11-04T15:59:58.930Z,2.28
2022-11-04T16:02:34.383Z,7.50
2022-11-04T16:05:10.263Z,2.38
2022-11-04T16:07:42.641Z,6.15
2022-11-04T16:10:33.837Z,4.72
2022-11-04T16:13:19.511Z,3.15
2022-11-04T16:15:46.008Z,5.30
2022-11-04T16:18:24.344Z,2.78
2022-11-04T16:20:52.586Z,3.95
2022-11-04T16:23:27.733Z,3.92
2022-11-04T16:26:01.654Z,3.00
2022-11-04T16:28:29.900Z,8.83
2022-11-04T16:30:58.982Z,3.08
2022-11-04T16:33:25.820Z,7.65
2022-11-04T16:35:52.406Z,3.90
2022-11-04T16:38:19.011Z,3.88
2022-11-04T16:40:47.993Z,11.23
2022-11-04T16:43:19.766Z,3.95
2022-11-04T16:45:53.333Z,4.43
2022-11-04T16:48:21.363Z,6.53
2022-11-04T16:50:48.194Z,5.88
2022-11-04T16:53:14.846Z,7.43
2022-11-04T16:55:42.865Z,6.60
2022-11-04T17:01:05.441Z,5.05
2022-11-04T17:03:32.578Z,4.93
2022-11-04T17:05:59.301Z,4.30
2022-11-04T17:08:26.882Z,6.07
2022-11-04T17:10:53.748Z,3.83
2022-11-04T17:13:20.678Z,4.25
2022-11-04T17:15:48.733Z,3.60
2022-11-04T17:18:17.547Z,4.30
2022-11-04T17:20:47.448Z,3.65
2022-11-04T17:23:14.777Z,5.88
2022-11-04T17:25:42.530Z,4.30
2022-11-04T17:28:09.501Z,3.40
2022-11-04T17:30:37.077Z,4.03
2022-11-04T17:33:03.889Z,4.72
2022-11-04T17:35:30.718Z,5.60
2022-11-04T17:37:57.292Z,5.32
2022-11-04T17:40:24.612Z,7.28
2022-11-04T17:43:02.006Z,4.50
2022-11-04T17:45:30.503Z,5.20
2022-11-04T17:47:57.046Z,8.65
2022-11-04T17:50:23.884Z,9.70
2022-11-04T17:52:50.448Z,6.25
2022-11-04T17:55:20.709Z,5.23
2022-11-04T17:57:50.325Z,8.00
2022-11-04T18:00:17.383Z,10.00
2022-11-04T18:02:43.966Z,6.97
2022-11-04T18:05:10.759Z,4.40
2022-11-04T18:07:37.578Z,8.97
2022-11-04T18:10:04.889Z,5.15
2022-11-04T18:12:31.564Z,5.32
2022-11-04T18:15:00.336Z,6.78
2022-11-04T18:17:27.046Z,7.22
2022-11-04T18:19:53.934Z,6.70
2022-11-04T18:22:22.678Z,12.00
2022-11-04T18:24:49.387Z,5.80
2022-11-04T18:27:19.400Z,8.95
2022-11-04T18:29:48.541Z,6.28
2022-11-04T18:32:15.239Z,12.30
2022-11-04T18:34:42.224Z,8.88
2022-11-04T18:37:08.978Z,10.93
2022-11-04T18:39:35.765Z,10.15
2022-11-04T18:42:02.318Z,8.60
2022-11-04T18:44:28.888Z,12.13
2022-11-04T18:46:56.903Z,9.10
2022-11-04T18:49:23.449Z,10.20
2022-11-04T18:51:51.456Z,10.13
2022-11-04T18:54:18.350Z,10.30
2022-11-04T18:56:44.989Z,10.47
2022-11-04T18:59:21.534Z,8.40
2022-11-04T19:01:48.420Z,14.75
2022-11-04T19:04:16.049Z,9.48
2022-11-04T19:06:44.519Z,16.77
2022-11-04T19:09:46.040Z,8.83
2022-11-04T19:12:03.684Z,8.57
2022-11-04T19:14:30.384Z,10.88
2022-11-04T19:16:57.072Z,7.40
2022-11-04T19:19:25.270Z,8.98
2022-11-04T19:21:51.897Z,11.47
2022-11-04T19:24:18.609Z,9.80
2022-11-04T19:26:45.254Z,9.63
2022-11-04T19:29:14.270Z,11.18
2022-11-04T19:31:40.925Z,12.27
2022-11-04T19:34:07.551Z,7.50
2022-11-04T19:36:36.401Z,8.05
2022-11-04T19:39:17.539Z,9.10
2022-11-04T19:41:44.205Z,10.45
2022-11-04T19:44:14.047Z,9.45
2022-11-04T19:46:40.960Z,9.27
2022-11-04T19:49:10.386Z,7.65
2022-11-04T19:51:40.703Z,9.18
2022-11-04T19:54:07.896Z,8.57
2022-11-04T19:56:38.465Z,7.90
2022-11-04T19:59:06.819Z,15.47
2022-11-04T20:01:39.710Z,13.15
2022-11-04T20:04:06.513Z,17.55
2022-11-04T20:06:33.388Z,12.18
2022-11-04T20:09:05.777Z,14.07
2022-11-04T20:11:36.089Z,17.17
2022-11-04T20:14:07.744Z,14.30
2022-11-04T20:16:34.992Z,14.50
2022-11-04T20:19:03.459Z,13.95
2022-11-04T20:21:36.786Z,16.90
2022-11-04T20:24:06.214Z,15.13
2022-11-04T20:26:34.393Z,15.98
2022-11-04T20:29:01.304Z,13.52
2022-11-04T20:31:31.072Z,13.73
2022-11-04T20:33:57.716Z,18.75
2022-11-04T20:36:34.511Z,11.73
2022-11-04T20:39:08.441Z,13.45
2022-11-04T20:41:35.406Z,13.88
2022-11-04T20:44:02.282Z,15.18
2022-11-04T20:46:34.871Z,15.82
2022-11-04T20:49:25.279Z,13.03
2022-11-04T20:51:55.103Z,10.57
2022-11-04T20:54:22.285Z,11.30
2022-11-04T20:56:59.136Z,9.38
2022-11-04T20:59:25.759Z,10.10
2022-11-04T21:01:52.520Z,10.30
2022-11-04T21:04:20.755Z,10.00
2022-11-04T21:06:52.267Z,8.20
2022-11-04T21:09:20.624Z,7.70
2022-11-04T21:11:47.573Z,8.45
2022-11-04T21:14:23.967Z,7.90
2022-11-04T21:16:51.236Z,8.32
2022-11-04T21:19:17.967Z,7.35
2022-11-04T21:21:44.987Z,11.52
2022-11-04T21:24:13.526Z,8.45
2022-11-04T21:26:47.767Z,7.40
2022-11-04T21:29:19.167Z,9.25
2022-11-04T21:31:57.403Z,7.30
2022-11-04T21:34:24.202Z,5.07
2022-11-04T21:36:51.652Z,4.32
2022-11-04T21:39:18.237Z,3.57
2022-11-04T21:42:02.024Z,3.65
2022-11-04T21:44:28.636Z,5.72
2022-11-04T21:47:21.391Z,6.05
2022-11-04T21:49:47.950Z,7.05
2022-11-04T21:52:20.835Z,8.70
2022-11-04T21:54:53.082Z,7.57
2022-11-04T21:57:24.254Z,7.00
2022-11-04T21:59:51.060Z,14.85
2022-11-04T22:02:19.130Z,3.30
2022-11-04T22:04:45.936Z,7.37
2022-11-04T22:07:12.512Z,2.45
2022-11-04T22:09:39.376Z,3.63
2022-11-04T22:12:06.232Z,3.92
2022-11-04T22:14:32.782Z,3.30
2022-11-04T22:17:00.759Z,6.17
2022-11-04T22:19:28.662Z,3.30
2022-11-04T22:21:55.537Z,4.47
2022-11-04T22:24:22.105Z,3.10
2022-11-04T22:26:50.905Z,3.45
2022-11-04T22:29:17.599Z,4.10
2022-11-04T22:31:44.442Z,4.50
2022-11-04T22:34:11.269Z,3.38
2022-11-04T22:36:43.395Z,5.90
2022-11-04T22:39:16.118Z,6.07
2022-11-04T22:41:43.816Z,8.47
2022-11-04T22:44:10.367Z,8.13
2022-11-04T22:46:37.086Z,14.77
2022-11-04T22:49:03.656Z,4.82
2022-11-04T22:51:30.262Z,3.92
2022-11-04T22:54:01.375Z,8.53
2022-11-04T22:59:23.277Z,4.40
2022-11-04T23:01:51.282Z,3.92
2022-11-04T23:04:32.740Z,4.72
2022-11-04T23:06:59.713Z,8.13
2022-11-04T23:28:33.611Z,6.40
2022-11-04T23:31:04.075Z,7.32
2022-11-04T23:39:04.197Z,7.22
2022-11-04T23:41:37.393Z,10.18
